createdAt,value
2019-04-06T00:00:25.102Z,101276.30
2019-04-06T00:02:54.999Z,101276.30
2019-04-06T00:05:24.682Z,101282.41
2019-04-06T00:07:54.806Z,101283.29
2019-04-06T00:10:24.353Z,101285.52
2019-04-06T00:12:54.007Z,101285.95
2019-04-06T00:15:24.009Z,101278.02
2019-04-06T00:17:53.906Z,101286.38
2019-04-06T00:20:23.507Z,101289.44
2019-04-06T00:22:53.862Z,101288.55
2019-04-06T00:25:23.487Z,101290.33
2019-04-06T00:27:53.086Z,101293.38
2019-04-06T00:30:23.094Z,101292.94
2019-04-06T00:33:04.984Z,101286.77
2019-04-06T00:35:35.028Z,101289.86
2019-04-06T00:38:04.919Z,101296.88
2019-04-06T00:40:34.559Z,101293.34
2019-04-06T00:43:04.559Z,101288.98
2019-04-06T00:45:34.073Z,101291.62
2019-04-06T00:48:03.804Z,101288.53
2019-04-06T00:50:33.792Z,101288.96
2019-04-06T00:53:03.633Z,101285.41
2019-04-06T00:55:33.498Z,101294.64
2019-04-06T00:58:03.539Z,101291.14
2019-04-06T01:00:33.475Z,101286.74
2019-04-06T01:03:03.204Z,101295.92
2019-04-06T01:05:33.692Z,101285.39
2019-04-06T01:08:03.690Z,101277.97
2019-04-06T01:10:33.447Z,101267.39
2019-04-06T01:13:03.078Z,101280.11
2019-04-06T01:15:32.917Z,101280.57
2019-04-06T01:18:02.646Z,101279.67
2019-04-06T01:20:32.395Z,101277.90
2019-04-06T01:23:02.148Z,101272.64
2019-04-06T01:25:31.915Z,101272.66
2019-04-06T01:28:01.683Z,101285.83
2019-04-06T01:30:32.016Z,101277.94
2019-04-06T01:33:01.758Z,101277.92
2019-04-06T01:35:34.880Z,101273.53
2019-04-06T01:38:04.488Z,101272.17
2019-04-06T01:40:34.075Z,101274.36
2019-04-06T01:43:04.120Z,101273.87
2019-04-06T01:45:33.752Z,101272.56
2019-04-06T01:48:03.534Z,101269.52
2019-04-06T01:50:33.492Z,101273.52
2019-04-06T01:53:03.169Z,101269.11
2019-04-06T01:55:33.204Z,101284.90
2019-04-06T01:58:03.290Z,101266.43
2019-04-06T02:00:33.111Z,101262.89
2019-04-06T02:03:02.716Z,101271.68
2019-04-06T02:05:32.550Z,101274.28
2019-04-06T02:08:02.228Z,101269.91
2019-04-06T02:10:31.886Z,101267.69
2019-04-06T02:13:01.740Z,101276.89
2019-04-06T02:15:31.906Z,101159.52
2019-04-06T02:18:01.927Z,101270.25
2019-04-06T02:20:31.606Z,101270.25
2019-04-06T02:23:01.622Z,101267.17
2019-04-06T02:25:31.669Z,101259.23
2019-04-06T02:28:02.246Z,101260.06
2019-04-06T02:30:39.173Z,101261.78
2019-04-06T02:33:15.008Z,101267.84
2019-04-06T02:36:00.915Z,101266.02
2019-04-06T02:38:55.613Z,101272.08
2019-04-06T02:41:50.008Z,101270.28
2019-04-06T02:44:19.645Z,101267.59
2019-04-06T02:46:49.199Z,101275.45
2019-04-06T02:49:19.360Z,101292.06
2019-04-06T02:51:49.041Z,101272.72
2019-04-06T02:54:18.978Z,101281.84
2019-04-06T02:56:49.367Z,101242.64
2019-04-06T02:59:19.106Z,101287.91
2019-04-06T03:01:48.713Z,101297.03
2019-04-06T03:04:18.587Z,101283.79
2019-04-06T03:06:48.425Z,101280.70
2019-04-06T03:09:18.191Z,101282.86
2019-04-06T03:11:48.042Z,101282.86
2019-04-06T03:14:18.435Z,101284.94
2019-04-06T03:16:48.068Z,101268.69
2019-04-06T03:19:18.146Z,101281.68
2019-04-06T03:21:47.912Z,101284.30
2019-04-06T03:24:17.558Z,101280.33
2019-04-06T03:26:59.877Z,101290.81
2019-04-06T03:29:19.202Z,101285.99
2019-04-06T03:31:49.167Z,101285.95
2019-04-06T03:34:21.477Z,101292.92
2019-04-06T03:36:50.566Z,101290.26
2019-04-06T03:39:20.378Z,101291.57
2019-04-06T03:41:50.001Z,101292.36
2019-04-06T03:44:19.929Z,101278.59
2019-04-06T03:46:49.642Z,101278.59
2019-04-06T03:49:19.225Z,101284.98
2019-04-06T03:51:49.252Z,101281.64
2019-04-06T03:54:19.129Z,101281.64
2019-04-06T03:56:48.692Z,101292.86
2019-04-06T03:59:18.680Z,101297.62
2019-04-06T04:01:48.309Z,101293.27
2019-04-06T04:04:18.107Z,101298.04
2019-04-06T04:06:47.898Z,101284.89
2019-04-06T04:09:17.631Z,101291.91
2019-04-06T04:11:47.294Z,101293.11
2019-04-06T04:14:17.298Z,101297.91
2019-04-06T04:16:46.883Z,101290.00
2019-04-06T04:19:16.592Z,101294.23
2019-04-06T04:21:46.524Z,101298.64
2019-04-06T04:24:16.241Z,101281.55
2019-04-06T04:26:45.947Z,101297.56
2019-04-06T04:29:15.846Z,101297.56
2019-04-06T04:31:45.853Z,101298.81
2019-04-06T04:34:15.599Z,101305.83
2019-04-06T04:36:45.818Z,101305.83
2019-04-06T04:39:15.641Z,101302.65
2019-04-06T04:41:45.550Z,101296.39
2019-04-06T04:44:15.530Z,101296.39
2019-04-06T04:46:45.372Z,101122.81
2019-04-06T04:49:15.056Z,101302.69
2019-04-06T04:51:45.372Z,101302.69
2019-04-06T04:54:15.035Z,101304.05
2019-04-06T04:56:44.643Z,101307.64
2019-04-06T04:59:14.475Z,101308.05
2019-04-06T05:01:44.333Z,101308.05
2019-04-06T05:04:13.897Z,101308.33
2019-04-06T05:06:43.802Z,101313.62
2019-04-06T05:09:13.486Z,101317.14
2019-04-06T05:11:43.561Z,101304.83
2019-04-06T05:14:48.940Z,101302.95
2019-04-06T05:17:18.682Z,101302.95
2019-04-06T05:19:48.337Z,101306.00
2019-04-06T05:22:18.166Z,101305.50
2019-04-06T05:24:47.992Z,101305.50
2019-04-06T05:27:18.505Z,101301.17
2019-04-06T05:29:48.537Z,101302.48
2019-04-06T05:32:18.335Z,101312.54
2019-04-06T05:34:48.042Z,101302.05
2019-04-06T05:37:17.696Z,101302.05
2019-04-06T05:39:47.349Z,101308.05
2019-04-06T05:42:17.497Z,101306.75
2019-04-06T05:44:47.224Z,101321.27
2019-04-06T05:47:17.288Z,101321.53
2019-04-06T05:49:47.400Z,101319.48
2019-04-06T05:52:17.289Z,101321.95
2019-04-06T05:54:46.892Z,101313.22
2019-04-06T05:57:16.669Z,101331.11
2019-04-06T05:59:47.088Z,101328.30
2019-04-06T06:02:16.760Z,101324.50
2019-04-06T06:04:46.412Z,101324.50
2019-04-06T06:07:16.635Z,101331.31
2019-04-06T06:09:46.542Z,101320.59
2019-04-06T06:12:16.358Z,101320.59
2019-04-06T06:14:46.572Z,101324.58
2019-04-06T06:17:16.623Z,101320.22
2019-04-06T06:19:46.729Z,101317.77
2019-04-06T06:22:16.658Z,101317.77
2019-04-06T06:24:46.276Z,101321.27
2019-04-06T06:27:16.340Z,101321.27
2019-04-06T06:29:46.261Z,101320.23
2019-04-06T06:32:16.218Z,101324.98
2019-04-06T06:34:46.057Z,101314.67
2019-04-06T06:37:15.789Z,101321.69
2019-04-06T06:39:45.743Z,101320.16
2019-04-06T06:42:16.393Z,101320.16
2019-04-06T06:44:46.461Z,101329.95
2019-04-06T06:47:16.654Z,101329.95
2019-04-06T06:49:46.501Z,101348.48
2019-04-06T06:52:17.520Z,101342.51
2019-04-06T06:54:47.518Z,101342.51
2019-04-06T06:57:17.326Z,101340.03
2019-04-06T06:59:47.464Z,101340.03
2019-04-06T07:02:17.398Z,101338.89
2019-04-06T07:04:47.244Z,101342.98
2019-04-06T07:07:17.530Z,101347.45
2019-04-06T07:09:47.447Z,101340.98
2019-04-06T07:12:17.190Z,101323.94
2019-04-06T07:14:47.469Z,101347.71
2019-04-06T07:17:17.584Z,101351.38
2019-04-06T07:19:48.578Z,101356.78
2019-04-06T07:22:18.474Z,101356.78
2019-04-06T07:24:50.339Z,101358.56
2019-04-06T07:27:20.204Z,101358.62
2019-04-06T07:29:50.158Z,101358.80
2019-04-06T07:32:20.472Z,101353.56
2019-04-06T07:34:50.515Z,101349.28
2019-04-06T07:37:20.320Z,101349.42
2019-04-06T07:39:50.391Z,101349.42
2019-04-06T07:42:20.056Z,101348.98
2019-04-06T07:44:50.154Z,101349.13
2019-04-06T07:47:20.609Z,101361.02
2019-04-06T07:49:50.494Z,101347.51
2019-04-06T07:52:20.340Z,101352.41
2019-04-06T07:54:51.105Z,101354.19
2019-04-06T07:57:21.156Z,101352.48
2019-04-06T07:59:50.778Z,101352.16
2019-04-06T08:02:20.625Z,101349.96
2019-04-06T08:04:50.589Z,101354.47
2019-04-06T08:07:20.312Z,101350.95
2019-04-06T08:09:50.256Z,101350.95
2019-04-06T08:12:19.960Z,101346.97
2019-04-06T08:14:49.601Z,101354.92
2019-04-06T08:17:19.665Z,101346.67
2019-04-06T08:19:49.553Z,101350.73
2019-04-06T08:22:19.157Z,101356.42
2019-04-06T08:24:49.235Z,101353.83
2019-04-06T08:27:18.973Z,101360.05
2019-04-06T08:29:48.793Z,101357.52
2019-04-06T08:32:18.785Z,101357.52
2019-04-06T08:34:48.366Z,101357.52
2019-04-06T08:37:18.054Z,101358.45
2019-04-06T08:39:48.268Z,101367.70
2019-04-06T08:42:18.058Z,101356.66
2019-04-06T08:44:47.588Z,101349.63
2019-04-06T08:47:17.344Z,101359.67
2019-04-06T08:49:47.188Z,101375.87
2019-04-06T08:52:16.794Z,101375.87
2019-04-06T08:54:46.675Z,101378.48
2019-04-06T08:57:16.559Z,101368.91
2019-04-06T08:59:46.357Z,101368.91
2019-04-06T09:02:16.097Z,101375.53
2019-04-06T09:04:45.759Z,101378.67
2019-04-06T09:07:15.947Z,101383.97
2019-04-06T09:09:45.793Z,101370.81
2019-04-06T09:12:15.465Z,101374.33
2019-04-06T09:14:45.371Z,101364.71
2019-04-06T09:17:15.487Z,101367.38
2019-04-06T09:19:45.439Z,101376.18
2019-04-06T09:22:15.462Z,101377.06
2019-04-06T09:24:45.406Z,101376.19
2019-04-06T09:27:18.215Z,101382.36
2019-04-06T09:29:48.056Z,101384.11
2019-04-06T09:32:18.920Z,101383.67
2019-04-06T09:34:48.674Z,101379.70
2019-04-06T09:37:18.846Z,101386.30
2019-04-06T09:39:49.182Z,101367.86
2019-04-06T09:42:20.544Z,101358.23
2019-04-06T09:45:18.494Z,101152.91
2019-04-06T09:47:59.504Z,101365.69
2019-04-06T09:50:46.792Z,101359.60
2019-04-06T09:53:43.784Z,101344.72
2019-04-06T09:56:39.374Z,101344.72
2019-04-06T09:59:36.271Z,101351.73
2019-04-06T10:02:13.487Z,101350.88
2019-04-06T10:05:05.460Z,101349.95
2019-04-06T10:07:47.995Z,101343.85
2019-04-06T10:10:46.432Z,101343.41
2019-04-06T10:13:35.310Z,101339.93
2019-04-06T10:16:12.450Z,101334.66
2019-04-06T10:18:54.844Z,101345.63
2019-04-06T10:21:55.808Z,101336.01
2019-04-06T10:24:56.677Z,101332.50
2019-04-06T10:27:44.676Z,101328.98
2019-04-06T10:30:26.202Z,101324.64
2019-04-06T10:33:18.643Z,101326.84
2019-04-06T10:36:17.185Z,101319.78
2019-04-06T10:39:08.890Z,101319.34
2019-04-06T10:41:48.935Z,101317.56
2019-04-06T10:44:40.528Z,101307.42
2019-04-06T10:47:35.860Z,101302.56
2019-04-06T10:50:20.419Z,101298.13
2019-04-06T10:52:58.400Z,101294.58
2019-04-06T10:55:35.468Z,101293.69
2019-04-06T10:58:24.723Z,101295.41
2019-04-06T11:01:17.584Z,101296.27
2019-04-06T11:04:06.517Z,101294.03
2019-04-06T11:07:04.503Z,101291.37
2019-04-06T11:09:53.604Z,101290.03
2019-04-06T11:12:41.050Z,101288.61
2019-04-06T11:15:30.460Z,101285.48
2019-04-06T11:18:23.167Z,101284.59
2019-04-06T11:21:10.653Z,101286.28
2019-04-06T11:24:00.638Z,101145.77
2019-04-06T11:26:58.811Z,101283.22
2019-04-06T11:29:57.324Z,101275.88
2019-04-06T11:32:46.186Z,101286.20
2019-04-06T11:35:35.071Z,101281.59
2019-04-06T11:38:27.362Z,101278.69
2019-04-06T11:41:07.097Z,101269.80
2019-04-06T11:43:56.190Z,101264.22
2019-04-06T11:46:54.991Z,101258.77
2019-04-06T11:49:56.325Z,101268.38
2019-04-06T11:52:48.535Z,101268.22
2019-04-06T11:55:36.733Z,101258.26
2019-04-06T11:58:24.540Z,101259.91
2019-04-06T12:01:23.097Z,101258.73
2019-04-06T12:04:10.503Z,101251.98
2019-04-06T12:06:49.533Z,101253.50
2019-04-06T12:09:41.524Z,101251.69
2019-04-06T12:12:30.674Z,101247.24
2019-04-06T12:15:22.274Z,101241.09
2019-04-06T12:18:24.138Z,101239.42
2019-04-06T12:21:18.735Z,101238.38
2019-04-06T12:24:17.036Z,101238.78
2019-04-06T12:27:04.660Z,101234.75
2019-04-06T12:29:42.592Z,101231.98
2019-04-06T12:32:39.387Z,101233.81
2019-04-06T12:35:18.863Z,101227.96
2019-04-06T12:38:18.236Z,101228.30
2019-04-06T12:41:13.466Z,101226.48
2019-04-06T12:44:01.319Z,101227.52
2019-04-06T12:46:52.888Z,101232.09
2019-04-06T12:49:53.988Z,101226.73
2019-04-06T12:52:54.685Z,101217.13
2019-04-06T12:55:42.402Z,101214.73
2019-04-06T12:58:37.649Z,101210.22
2019-04-06T13:01:23.615Z,101213.48
2019-04-06T13:04:11.127Z,101217.63
2019-04-06T13:06:56.956Z,101212.08
2019-04-06T13:09:45.300Z,101206.59
2019-04-06T13:12:33.236Z,101201.05
2019-04-06T13:15:24.809Z,101200.91
2019-04-06T13:18:17.210Z,101198.32
2019-04-06T13:21:09.380Z,101186.69
2019-04-06T13:23:59.314Z,101187.13
2019-04-06T13:26:45.230Z,101183.84
2019-04-06T13:29:49.237Z,101182.97
2019-04-06T13:32:47.598Z,101187.31
2019-04-06T13:35:28.797Z,101184.20
2019-04-06T13:38:16.896Z,101178.67
2019-04-06T13:40:57.405Z,101182.05
2019-04-06T13:44:04.915Z,101176.87
2019-04-06T13:47:11.737Z,101173.52
2019-04-06T13:50:00.857Z,101168.45
2019-04-06T13:52:47.815Z,101173.13
2019-04-06T13:55:29.561Z,101176.98
2019-04-06T13:58:13.084Z,101174.22
2019-04-06T14:01:13.807Z,101174.73
2019-04-06T14:03:56.117Z,101175.11
2019-04-06T14:06:48.523Z,101174.28
2019-04-06T14:09:55.673Z,101175.42
2019-04-06T14:12:43.010Z,101171.66
2019-04-06T14:15:30.347Z,101166.17
2019-04-06T14:18:11.175Z,101170.25
2019-04-06T14:21:00.185Z,101165.79
2019-04-06T14:23:55.519Z,101168.73
2019-04-06T14:26:44.163Z,101166.34
2019-04-06T14:29:36.200Z,101161.31
2019-04-06T14:32:25.485Z,101168.25
2019-04-06T14:35:17.965Z,101165.59
2019-04-06T14:38:16.929Z,101158.86
2019-04-06T14:41:16.711Z,101159.62
2019-04-06T14:44:08.276Z,101156.55
2019-04-06T14:46:53.982Z,101161.02
2019-04-06T14:49:41.069Z,101164.03
2019-04-06T14:52:36.157Z,101165.97
2019-04-06T14:55:12.501Z,101164.52
2019-04-06T14:58:11.622Z,101161.83
2019-04-06T15:01:07.210Z,101169.92
2019-04-06T15:03:55.801Z,101175.39
2019-04-06T15:06:43.910Z,101170.41
2019-04-06T15:09:33.625Z,101169.52
2019-04-06T15:12:23.838Z,101172.09
2019-04-06T15:15:23.051Z,101171.95
2019-04-06T15:18:21.538Z,101167.97
2019-04-06T15:21:14.486Z,101178.36
2019-04-06T15:24:01.872Z,101169.52
2019-04-06T15:26:49.952Z,101176.65
2019-04-06T15:29:44.675Z,100436.23
2019-04-06T15:32:40.287Z,101167.05
2019-04-06T15:35:17.416Z,101171.48
2019-04-06T15:38:01.163Z,101162.05
2019-04-06T15:41:08.965Z,101164.16
2019-04-06T15:44:06.871Z,101166.80
2019-04-06T15:46:55.946Z,101164.10
2019-04-06T15:49:51.204Z,101164.99
2019-04-06T16:05:22.071Z,101132.53
2019-04-06T16:08:16.730Z,101152.93
2019-04-06T16:11:04.352Z,101150.30
2019-04-06T16:13:42.536Z,101156.16
2019-04-06T16:16:40.584Z,101144.64
2019-04-06T16:19:44.413Z,101141.98
2019-04-06T16:22:22.967Z,101138.84
2019-04-06T16:25:06.864Z,101132.56
2019-04-06T16:27:45.212Z,101126.09
2019-04-06T16:30:40.421Z,101130.84
2019-04-06T16:33:50.831Z,101130.40
2019-04-06T16:36:41.618Z,101128.34
2019-04-06T16:39:26.591Z,101127.64
2019-04-06T16:42:12.185Z,101131.25
2019-04-06T16:45:00.735Z,101132.64
2019-04-06T16:47:49.364Z,101137.08
2019-04-06T16:50:47.244Z,101140.17
2019-04-06T16:53:38.944Z,101137.02
2019-04-06T16:56:28.886Z,101144.16
2019-04-06T16:59:06.008Z,101140.28
2019-04-06T17:01:49.600Z,101142.60
2019-04-06T17:04:52.992Z,100982.69
2019-04-06T17:07:34.562Z,101140.55
2019-04-06T17:10:15.594Z,101135.33
2019-04-06T17:15:55.160Z,101140.41
2019-04-06T17:18:45.045Z,101142.28
2019-04-06T17:21:27.030Z,101142.28
2019-04-06T17:24:30.828Z,101141.45
2019-04-06T17:27:25.979Z,101141.50
2019-04-06T17:30:18.729Z,101144.99
2019-04-06T17:33:25.754Z,101142.39
2019-04-06T17:36:20.294Z,101151.33
2019-04-06T17:39:16.393Z,101143.42
2019-04-06T17:41:56.761Z,101147.45
2019-04-06T17:44:38.662Z,101148.43
2019-04-06T17:47:16.114Z,101150.70
2019-04-06T17:50:08.905Z,101156.94
2019-04-06T17:52:48.850Z,101155.61
2019-04-06T17:55:40.522Z,101157.86
2019-04-06T17:58:25.737Z,101156.14
2019-04-06T18:01:23.319Z,101159.28
2019-04-06T18:04:05.256Z,101152.21
2019-04-06T18:06:54.534Z,101160.66
2019-04-06T18:09:38.838Z,101161.55
2019-04-06T18:12:24.637Z,101158.49
2019-04-06T18:14:56.655Z,101151.91
2019-04-06T18:17:26.626Z,101161.24
2019-04-06T18:19:56.335Z,101163.49
2019-04-06T18:22:27.766Z,101162.62
2019-04-06T18:24:57.328Z,101167.08
2019-04-06T18:27:27.434Z,101173.22
2019-04-06T18:29:57.381Z,101171.50
2019-04-06T18:35:27.181Z,101169.20
2019-04-06T18:38:16.916Z,101168.36
2019-04-06T18:40:47.075Z,101169.25
2019-04-06T18:43:16.655Z,101170.66
2019-04-06T18:45:46.623Z,101169.33
2019-04-06T18:48:16.350Z,101177.69
2019-04-06T18:50:46.273Z,101169.73
2019-04-06T18:53:15.938Z,101173.70
2019-04-06T18:56:04.178Z,101177.69
2019-04-06T18:58:36.456Z,101174.55
2019-04-06T19:01:06.613Z,101176.80
2019-04-06T19:03:37.182Z,101167.52
2019-04-06T19:06:07.288Z,101169.73
2019-04-06T19:08:36.848Z,101171.55
2019-04-06T19:11:06.980Z,101173.35
2019-04-06T19:13:37.527Z,101167.20
2019-04-06T19:16:07.244Z,101164.56
2019-04-06T19:18:36.763Z,101170.75
2019-04-06T19:21:06.720Z,101154.88
2019-04-06T19:23:36.355Z,101157.48
2019-04-06T19:26:19.715Z,101154.84
2019-04-06T19:28:49.201Z,101160.14
2019-04-06T19:31:19.353Z,101158.38
2019-04-06T19:33:48.954Z,101153.95
2019-04-06T19:36:18.550Z,101157.44
2019-04-06T19:38:49.619Z,101157.00
2019-04-06T19:41:19.360Z,101152.54
2019-04-06T19:43:48.961Z,101150.33
2019-04-06T19:46:18.414Z,101152.14
2019-04-06T19:48:48.195Z,101150.42
2019-04-06T19:51:18.078Z,101150.02
2019-04-06T19:53:48.304Z,101153.56
2019-04-06T19:56:17.965Z,101149.05
2019-04-06T19:58:48.079Z,101151.26
2019-04-06T20:01:17.777Z,101162.36
2019-04-06T20:03:47.819Z,101146.09
2019-04-06T20:06:18.253Z,101147.05
2019-04-06T20:08:47.925Z,101150.64
2019-04-06T20:11:17.747Z,101147.55
2019-04-06T20:13:47.386Z,101146.75
2019-04-06T20:16:17.483Z,101143.35
2019-04-06T20:18:47.677Z,101147.41
2019-04-06T20:21:17.628Z,101141.31
2019-04-06T20:23:47.384Z,101144.88
2019-04-06T20:26:17.288Z,101146.73
2019-04-06T20:28:46.961Z,101150.75
2019-04-06T20:31:16.592Z,101143.72
2019-04-06T20:33:51.370Z,101141.11
2019-04-06T20:36:18.242Z,101145.09
2019-04-06T20:38:48.219Z,101140.67
2019-04-06T20:41:18.060Z,101139.30
2019-04-06T20:43:47.783Z,101138.02
2019-04-06T20:46:19.960Z,101135.89
2019-04-06T20:48:50.304Z,101140.34
2019-04-06T20:51:20.022Z,101131.12
2019-04-06T20:53:50.191Z,101129.42
2019-04-06T20:56:19.947Z,101130.35
2019-04-06T20:58:49.564Z,101129.58
2019-04-06T21:01:19.121Z,101126.05
2019-04-06T21:03:58.813Z,101116.85
2019-04-06T21:06:20.534Z,101119.95
2019-04-06T21:08:50.813Z,101122.59
2019-04-06T21:11:21.422Z,101123.08
2019-04-06T21:13:51.684Z,101120.86
2019-04-06T21:16:21.711Z,101120.86
2019-04-06T21:18:51.548Z,101115.56
2019-04-06T21:21:22.089Z,101125.72
2019-04-06T21:23:54.027Z,101121.37
2019-04-06T21:26:23.754Z,101120.05
2019-04-06T21:28:53.699Z,101119.14
2019-04-06T21:31:23.497Z,101124.73
2019-04-06T21:33:54.044Z,101120.75
2019-04-06T21:36:24.351Z,101122.03
2019-04-06T21:38:53.996Z,101124.69
2019-04-06T21:41:24.592Z,101118.50
2019-04-06T21:43:54.624Z,101126.93
2019-04-06T21:46:24.681Z,101127.01
2019-04-06T21:48:54.230Z,101125.31
2019-04-06T21:51:24.138Z,101121.86
2019-04-06T21:53:53.720Z,101127.16
2019-04-06T21:56:23.281Z,101125.31
2019-04-06T21:58:53.096Z,101132.48
2019-04-06T22:01:24.091Z,101126.89
2019-04-06T22:03:53.902Z,101127.44
2019-04-06T22:06:24.978Z,101123.91
2019-04-06T22:08:55.574Z,101119.46
2019-04-06T22:11:25.130Z,101133.52
2019-04-06T22:13:54.750Z,101117.55
2019-04-06T22:16:24.591Z,101126.38
2019-04-06T22:18:54.416Z,101119.80
2019-04-06T22:21:24.323Z,101115.42
2019-04-06T22:23:54.615Z,101115.49
2019-04-06T22:26:27.457Z,101119.50
2019-04-06T22:28:57.104Z,101116.00
2019-04-06T22:31:28.163Z,101114.23
2019-04-06T22:34:01.615Z,101108.13
2019-04-06T22:36:31.984Z,101113.93
2019-04-06T22:39:01.728Z,101108.23
2019-04-06T22:41:31.482Z,101105.59
2019-04-06T22:44:01.769Z,101106.47
2019-04-06T22:46:31.853Z,101096.83
2019-04-06T22:49:01.750Z,101109.24
2019-04-06T22:51:32.189Z,101104.42
2019-04-06T22:54:03.686Z,101090.86
2019-04-06T22:56:33.619Z,101096.96
2019-04-06T22:59:03.203Z,101100.99
2019-04-06T23:01:34.631Z,101090.91
2019-04-06T23:04:21.056Z,101089.69
2019-04-06T23:06:58.064Z,101096.33
2019-04-06T23:09:28.246Z,101092.86
2019-04-06T23:11:58.102Z,101100.80
2019-04-06T23:14:29.263Z,101103.47
2019-04-06T23:16:58.786Z,101096.45
2019-04-06T23:19:29.361Z,101098.68
2019-04-06T23:21:59.760Z,101097.86
2019-04-06T23:24:29.368Z,101097.39
2019-04-06T23:26:59.578Z,101095.24
2019-04-06T23:29:29.506Z,101095.24
2019-04-06T23:31:59.888Z,101093.04
2019-04-06T23:34:29.361Z,101095.73
2019-04-06T23:36:59.338Z,101098.82
2019-04-06T23:39:30.069Z,101095.73
2019-04-06T23:42:00.136Z,101089.62
2019-04-06T23:44:30.571Z,101093.17
2019-04-06T23:47:00.740Z,101091.44
2019-04-06T23:49:30.382Z,101089.33
2019-04-06T23:52:00.281Z,101090.64
2019-04-06T23:54:30.094Z,101091.56
2019-04-06T23:56:59.769Z,101091.18
2019-04-06T23:59:29.606Z,101089.88
